KBIE/BIE METAR and TAF weather

Enter ICAO airport designator
Station Type Date Time Source
KBIE METAR 2018/07/19 07:35 UTC NOAA

KBIE 190735Z AUTO 11004KT 7SM BKN050 24/23 A2989 RMK AO2 LTG DSNT N AND NW T02370230


Station Type Date Time Source
KBIE Decoded METAR 2018/07/19 07:35 UTC NOAA

Beatrice Municipal, NE, United States (KBIE) 40-18N 096-45W
Jul 19, 2018 - 03:35 AM EDT / 2018.07.19 0735 UTC
Wind: from the ESE (110 degrees) at 5 MPH (4 KT):0
Visibility: 7 mile(s):0
Sky conditions: mostly cloudy
Weather: Lightning observed
Temperature: 74.7 F (23.7 C)
Dew Point: 73.4 F (23.0 C)
Relative Humidity: 95%
Pressure (altimeter): 29.89 in. Hg (1012 hPa)
ob: KBIE 190735Z AUTO 11004KT 7SM BKN050 24/23 A2989 RMK AO2 LTG DSNT N AND NW T02370230
cycle: 7

Station Type Date Time Source
KBIE TAF UTC NOAA

Error!


Example: see airport list